Time;durP1;ratioP1;P1;durP2;ratioP2;P2;SDS_P1;SDS_P2;PMS_P1;PMS_P2;Temp;Humidity;BMP_temperature;BMP_pressure;BME280_temperature;BME280_humidity;BME280_pressure;Samples;Min_cycle;Max_cycle;Signal;HPM_P1;HPM_P2
2022/08/01 00:19:38;;;;;;;;;;;;;;;;;;;;;
2022/08/01 00:24:04;;;;;;;0.30;0.30;;;;;;;-145.06;100.00;60892.56;5992062;23;20004;-90
2022/08/01 00:26:19;;;;;;;0.40;0.35;;;;;;;-145.06;100.00;60892.56;5964579;23;20012;-89
2022/08/01 00:29:24;;;;;;;0.30;0.20;;;;;;;-145.06;100.00;60892.56;5970905;23;20093;-91
2022/08/01 00:32:47;;;;;;;0.50;0.30;;;;;;;-145.06;100.00;60892.56;5950565;23;20009;-90
2022/08/01 00:36:01;;;;;;;0.20;0.20;;;;;;;-145.06;100.00;60892.56;5950725;23;20076;-90
2022/08/01 00:39:24;;;;;;;0.70;0.40;;;;;;;-145.06;100.00;60892.56;5950086;23;20301;-90
2022/08/01 00:57:10;;;;;;;0.30;0.30;;;;;;;-145.06;100.00;60892.56;5837499;23;20090;-90
2022/08/01 01:03:39;;;;;;;0.10;0.10;;;;;;;-145.06;100.00;60892.56;5957679;23;20037;-89
2022/08/01 01:10:24;;;;;;;0.43;0.32;;;;;;;-145.06;100.00;60892.56;5969815;23;20029;-90
2022/08/01 01:13:27;;;;;;;0.63;0.30;;;;;;;-145.06;100.00;60892.56;5951239;23;20008;-89
2022/08/01 01:16:17;;;;;;;0.45;0.20;;;;;;;-145.06;100.00;60892.56;5952986;23;20005;-90
2022/08/01 01:19:02;;;;;;;;;;;;;;;-145.06;100.00;60892.56;5974198;23;20009;-90
2022/08/01 01:22:13;;;;;;;;;;;;;;;;;;;;;
2022/08/01 01:25:40;;;;;;;0.75;0.40;;;;;;;-145.06;100.00;60892.56;5978046;23;20009;-90
2022/08/01 01:29:16;;;;;;;0.30;0.30;;;;;;;-145.06;100.00;60892.56;5952481;23;20072;-90
2022/08/01 01:32:42;;;;;;;0.43;0.30;;;;;;;-145.06;100.00;60892.56;5952250;23;20001;-90
2022/08/01 01:35:46;;;;;;;0.30;0.30;;;;;;;-145.06;100.00;60892.56;5952215;23;20005;-90
2022/08/01 01:38:47;;;;;;;0.20;0.20;;;;;;;-145.06;100.00;60892.56;5972644;23;20435;-89
2022/08/01 01:42:10;;;;;;;0.63;0.30;;;;;;;-145.06;100.00;60892.56;5973260;23;20072;-92
2022/08/01 01:45:07;;;;;;;0.20;0.20;;;;;;;-145.06;100.00;60892.56;5952000;23;20001;-91
2022/08/01 01:48:10;;;;;;;;;;;;;;;;;;;;;
2022/08/01 01:54:38;;;;;;;0.35;0.30;;;;;;;-145.06;100.00;60892.56;5984245;23;20009;-89
2022/08/01 01:57:40;;;;;;;0.65;0.28;;;;;;;-145.06;100.00;60892.56;5951713;23;20008;-88
2022/08/01 02:00:42;;;;;;;;;;;;;;;;;;;;;
2022/08/01 02:07:25;;;;;;;0.20;0.20;;;;;;;-145.06;100.00;60892.56;5983947;23;20543;-89
2022/08/01 02:11:17;;;;;;;0.32;0.30;;;;;;;-145.06;100.00;60892.56;5951612;23;20001;-89
2022/08/01 02:14:26;;;;;;;0.68;0.28;;;;;;;-145.06;100.00;60892.56;5973488;23;20013;-91
2022/08/01 02:17:37;;;;;;;0.45;0.30;;;;;;;-145.06;100.00;60892.56;5973074;23;20068;-88
2022/08/01 02:20:40;;;;;;;0.80;0.35;;;;;;;-145.06;100.00;60892.56;5951579;23;20321;-91
2022/08/01 02:24:05;;;;;;;0.70;0.30;;;;;;;-145.06;100.00;60892.56;5951422;23;20471;-88
2022/08/01 02:27:16;;;;;;;0.47;0.20;;;;;;;-145.06;100.00;60892.56;5951806;23;20005;-91
2022/08/01 02:30:20;;;;;;;0.32;0.30;;;;;;;-145.06;100.00;60892.56;5951757;23;20005;-90
2022/08/01 02:33:37;;;;;;;0.65;0.30;;;;;;;-145.06;100.00;60892.56;5950993;23;20005;-88
2022/08/01 02:36:25;;;;;;;0.40;0.40;;;;;;;-145.06;100.00;60892.56;5951976;23;20001;-89
2022/08/01 02:39:22;;;;;;;1.05;0.50;;;;;;;-145.06;100.00;60892.56;5952468;23;20084;-90
2022/08/01 02:42:15;;;;;;;0.35;0.30;;;;;;;-145.06;100.00;60892.56;5952506;23;19997;-90
2022/08/01 02:45:10;;;;;;;;;;;;;;;;;;;;;
2022/08/01 02:47:56;;;;;;;0.43;0.30;;;;;;;-145.06;100.00;60892.56;5983831;23;20005;-89
2022/08/01 02:50:53;;;;;;;1.02;0.38;;;;;;;-145.06;100.00;60892.56;5951809;23;20420;-90
2022/08/01 02:53:43;;;;;;;0.32;0.30;;;;;;;-145.06;100.00;60892.56;5951940;23;20013;-90
2022/08/01 02:56:42;;;;;;;0.35;0.30;;;;;;;-145.06;100.00;60892.56;5952212;23;20004;-90
2022/08/01 02:59:25;;;;;;;0.50;0.40;;;;;;;-145.06;100.00;60892.56;5951632;23;20005;-90
2022/08/01 03:02:09;;;;;;;0.45;0.32;;;;;;;-145.06;100.00;60892.56;5973235;23;20241;-89
2022/08/01 03:05:08;;;;;;;0.45;0.32;;;;;;;-145.06;100.00;60892.56;5951471;23;20017;-89
2022/08/01 03:07:59;;;;;;;0.88;0.47;;;;;;;-145.06;100.00;60892.56;5952182;23;20004;-90
2022/08/01 03:10:53;;;;;;;0.50;0.50;;;;;;;-145.06;100.00;60892.56;5952473;23;20001;-88
2022/08/01 03:13:41;;;;;;;0.77;0.32;;;;;;;-145.06;100.00;60892.56;5952951;23;20009;-90
2022/08/01 03:16:31;;;;;;;0.50;0.40;;;;;;;-145.06;100.00;60892.56;5951591;23;20009;-89
2022/08/01 03:19:17;;;;;;;0.40;0.40;;;;;;;-145.06;100.00;60892.56;5952381;23;20008;-90
2022/08/01 03:22:09;;;;;;;0.75;0.30;;;;;;;-145.06;100.00;60892.56;5951286;23;20001;-88
2022/08/01 03:24:55;;;;;;;0.40;0.32;;;;;;;-145.06;100.00;60892.56;5952247;23;20024;-90
2022/08/01 03:27:44;;;;;;;0.45;0.30;;;;;;;-145.06;100.00;60892.56;5971665;23;20009;-88
2022/08/01 03:30:28;;;;;;;0.40;0.38;;;;;;;-145.06;100.00;60892.56;5951298;23;20001;-91
2022/08/01 03:33:18;;;;;;;0.65;0.50;;;;;;;-145.06;100.00;60892.56;5951429;23;20012;-90
2022/08/01 03:36:04;;;;;;;0.50;0.30;;;;;;;-145.06;100.00;60892.56;5951439;23;20009;-90
2022/08/01 03:38:49;;;;;;;1.02;0.40;;;;;;;-145.06;100.00;60892.56;5951762;23;20005;-89
2022/08/01 03:41:41;;;;;;;0.40;0.32;;;;;;;-145.06;100.00;60892.56;5951461;23;20001;-88
2022/08/01 03:44:28;;;;;;;0.65;0.30;;;;;;;-145.06;100.00;60892.56;5951928;23;20083;-90
2022/08/01 03:47:13;;;;;;;0.40;0.30;;;;;;;-145.06;100.00;60892.56;5951321;23;20005;-90
2022/08/01 03:49:57;;;;;;;0.35;0.30;;;;;;;-145.06;100.00;60892.56;5951932;23;20017;-89
2022/08/01 03:52:46;;;;;;;0.25;0.25;;;;;;;-145.06;100.00;60892.56;5940564;23;20009;-90
2022/08/01 03:55:26;;;;;;;0.30;0.30;;;;;;;-145.06;100.00;60892.56;5951339;23;20259;-89
2022/08/01 03:58:09;;;;;;;1.50;0.40;;;;;;;-145.06;100.00;60892.56;5951710;23;20443;-89
2022/08/01 04:00:52;;;;;;;0.57;0.40;;;;;;;-145.06;100.00;60892.56;5951751;23;20005;-90
2022/08/01 04:03:42;;;;;;;0.50;0.40;;;;;;;-145.06;100.00;60892.56;5952282;23;20009;-90
2022/08/01 04:06:23;;;;;;;0.63;0.40;;;;;;;-145.06;100.00;60892.56;5961041;23;20001;-91
2022/08/01 04:09:18;;;;;;;0.63;0.55;;;;;;;-145.06;100.00;60892.56;5972759;23;19993;-90
2022/08/01 04:12:00;;;;;;;1.33;0.75;;;;;;;-145.06;100.00;60892.56;5955979;23;20005;-90
2022/08/01 04:14:44;;;;;;;0.80;0.20;;;;;;;-145.06;100.00;60892.56;5951849;23;20009;-89
2022/08/01 04:17:33;;;;;;;0.50;0.50;;;;;;;-145.06;100.00;60892.56;5951330;23;20005;-89
2022/08/01 04:20:22;;;;;;;0.30;0.30;;;;;;;-145.06;100.00;60892.56;5952479;23;20001;-89
2022/08/01 04:23:16;;;;;;;0.60;0.40;;;;;;;-145.06;100.00;60892.56;5951557;23;20005;-88
2022/08/01 04:25:57;;;;;;;0.95;0.47;;;;;;;-145.06;100.00;60892.56;5951072;23;20013;-89
2022/08/01 04:28:48;;;;;;;0.90;0.40;;;;;;;-145.06;100.00;60892.56;5951943;23;20005;-89
2022/08/01 04:31:30;;;;;;;0.90;0.40;;;;;;;-145.06;100.00;60892.56;5951093;23;20521;-91
2022/08/01 04:34:14;;;;;;;0.50;0.50;;;;;;;-145.06;100.00;60892.56;5951847;23;20297;-90
2022/08/01 04:37:25;;;;;;;2.22;0.30;;;;;;;-145.06;100.00;60892.56;5951166;23;20317;-92
2022/08/01 04:40:11;;;;;;;0.77;0.38;;;;;;;-145.06;100.00;60892.56;5951861;23;20448;-88
2022/08/01 04:43:02;;;;;;;0.50;0.50;;;;;;;-145.06;100.00;60892.56;5951757;23;20001;-90
2022/08/01 04:45:50;;;;;;;0.40;0.30;;;;;;;-145.06;100.00;60892.56;5951412;23;20005;-89
2022/08/01 04:48:31;;;;;;;0.77;0.30;;;;;;;-145.06;100.00;60892.56;5953630;23;20001;-90
2022/08/01 04:51:24;;;;;;;0.40;0.40;;;;;;;-145.06;100.00;60892.56;5952959;23;20005;-89
2022/08/01 04:54:07;;;;;;;1.02;0.60;;;;;;;-145.06;100.00;60892.56;5953152;23;20001;-89
2022/08/01 04:56:49;;;;;;;0.68;0.32;;;;;;;-145.06;100.00;60892.56;5944558;23;20009;-90
2022/08/01 04:59:43;;;;;;;2.38;0.40;;;;;;;-145.06;100.00;60892.56;5953340;23;20080;-89
2022/08/01 05:02:33;;;;;;;0.75;0.40;;;;;;;-145.06;100.00;60892.56;5952507;23;20001;-88
2022/08/01 05:05:25;;;;;;;0.32;0.32;;;;;;;-145.06;100.00;60892.56;5952963;23;20005;-90
2022/08/01 05:08:13;;;;;;;0.90;0.47;;;;;;;-145.06;100.00;60892.56;5953167;23;20005;-89
2022/08/01 05:11:05;;;;;;;0.47;0.40;;;;;;;-145.06;100.00;60892.56;5952625;23;20009;-89
2022/08/01 05:13:51;;;;;;;0.68;0.50;;;;;;;-145.06;100.00;60892.56;5952701;23;20013;-90
2022/08/01 05:16:33;;;;;;;0.80;0.50;;;;;;;-145.06;100.00;60892.56;5952518;23;20013;-89
2022/08/01 05:19:18;;;;;;;0.90;0.38;;;;;;;-145.06;100.00;60892.56;5953090;23;20005;-87
2022/08/01 05:22:01;;;;;;;0.60;0.40;;;;;;;-145.06;100.00;60892.56;5952469;23;20028;-89
2022/08/01 05:24:40;;;;;;;0.90;0.45;;;;;;;-145.06;100.00;60892.56;5952587;23;20005;-88
2022/08/01 05:27:30;;;;;;;;;;;;;;;-145.06;100.00;60892.56;5953841;23;20001;-89
2022/08/01 05:30:20;;;;;;;0.70;0.50;;;;;;;-145.06;100.00;60892.56;5952887;23;20307;-89
2022/08/01 05:33:04;;;;;;;0.80;0.50;;;;;;;-145.06;100.00;60892.56;5953262;23;20435;-90
2022/08/01 05:35:57;;;;;;;1.00;0.70;;;;;;;-145.06;100.00;60892.56;5953344;23;20009;-90
2022/08/01 05:38:42;;;;;;;0.52;0.50;;;;;;;-145.06;100.00;60892.56;5952493;23;20009;-89
2022/08/01 05:41:26;;;;;;;1.30;0.80;;;;;;;-145.06;100.00;60892.56;5953747;23;20025;-88
2022/08/01 05:44:17;;;;;;;0.77;0.75;;;;;;;-145.06;100.00;60892.56;5953634;23;20084;-89
2022/08/01 05:47:02;;;;;;;1.38;0.70;;;;;;;-145.06;100.00;60892.56;5953051;23;20005;-89
2022/08/01 05:49:48;;;;;;;1.33;0.65;;;;;;;-145.06;100.00;60892.56;5953504;23;20005;-90
2022/08/01 05:52:32;;;;;;;2.00;0.85;;;;;;;-145.06;100.00;60892.56;5953182;23;20013;-90
2022/08/01 05:55:11;;;;;;;1.30;1.02;;;;;;;-145.06;100.00;60892.56;5952575;23;20001;-90
2022/08/01 05:57:51;;;;;;;1.00;0.90;;;;;;;-145.06;100.00;60892.56;5952770;23;20061;-90
2022/08/01 06:00:29;;;;;;;1.52;0.90;;;;;;;-145.06;100.00;60892.56;5953713;23;20005;-89
2022/08/01 06:03:09;;;;;;;2.05;1.13;;;;;;;-145.06;100.00;60892.56;5951995;23;20005;-90
2022/08/01 06:05:47;;;;;;;2.42;1.10;;;;;;;-145.06;100.00;60892.56;5954823;23;20009;-90
2022/08/01 06:08:27;;;;;;;1.30;1.00;;;;;;;-145.06;100.00;60892.56;5955003;23;20005;-90
2022/08/01 06:11:05;;;;;;;1.20;1.08;;;;;;;-145.06;100.00;60892.56;5954959;23;20033;-90
2022/08/01 06:13:55;;;;;;;1.42;1.00;;;;;;;-145.06;100.00;60892.56;5954862;23;20061;-90
2022/08/01 06:16:37;;;;;;;1.63;1.15;;;;;;;-145.06;100.00;60892.56;5956019;23;20040;-90
2022/08/01 06:19:17;;;;;;;1.17;1.05;;;;;;;-145.06;100.00;60892.56;5956755;23;20005;-89
2022/08/01 06:22:13;;;;;;;1.63;1.17;;;;;;;-145.06;100.00;60892.56;5955478;23;20061;-91
2022/08/01 06:24:52;;;;;;;2.08;1.20;;;;;;;-145.06;100.00;60892.56;5954927;23;20065;-89
2022/08/01 06:28:08;;;;;;;2.60;1.20;;;;;;;-145.06;100.00;60892.56;5954715;23;20444;-90
2022/08/01 06:30:53;;;;;;;1.98;1.33;;;;;;;-145.06;100.00;60892.56;5954276;23;20001;-90
2022/08/01 06:34:21;;;;;;;;;;;;;;;;;;;;;
2022/08/01 06:37:01;;;;;;;1.30;1.13;;;;;;;-145.06;100.00;60892.56;5962641;23;20025;-91
2022/08/01 06:40:05;;;;;;;1.95;1.00;;;;;;;-145.06;100.00;60892.56;5955030;23;20005;-91
2022/08/01 06:43:27;;;;;;;1.08;0.90;;;;;;;41.86;100.00;60892.56;5953646;23;20020;-92
2022/08/01 06:46:11;;;;;;;2.15;1.05;;;;;;;-145.06;100.00;60892.56;5920180;23;20001;-90
2022/08/01 06:49:16;;;;;;;1.58;1.00;;;;;;;-145.06;100.00;60892.56;5953531;23;20360;-91
2022/08/01 06:52:02;;;;;;;0.60;0.60;;;;;;;-145.06;100.00;60892.56;5976097;23;20013;-91
2022/08/01 06:55:04;;;;;;;0.70;0.65;;;;;;;-145.06;100.00;60892.56;5953873;23;20005;-92
2022/08/01 07:01:17;;;;;;;0.85;0.65;;;;;;;-145.06;100.00;60892.56;5986115;23;20005;-91
2022/08/01 07:06:23;;;;;;;0.52;0.50;;;;;;;-145.06;100.00;60892.56;6000932;22;20013;-90
2022/08/01 07:09:34;;;;;;;0.80;0.60;;;;;;;-145.06;100.00;60892.56;5982979;23;20008;-90
2022/08/01 07:12:14;;;;;;;0.70;0.60;;;;;;;-145.06;100.00;60892.56;5942214;23;20035;-90
2022/08/01 07:15:00;;;;;;;0.70;0.60;;;;;;;-145.06;100.00;60892.56;6003665;23;20009;-91
2022/08/01 07:17:44;;;;;;;0.90;0.70;;;;;;;-145.06;100.00;60892.56;5984013;23;20013;-91
2022/08/01 07:21:05;;;;;;;0.65;0.63;;;;;;;-145.06;100.00;60892.56;5985778;23;20001;-91
2022/08/01 07:23:44;;;;;;;0.90;0.70;;;;;;;-145.06;100.00;60892.56;5983591;23;20009;-91
2022/08/01 07:31:18;;;;;;;0.73;0.70;;;;;;;-145.06;100.00;60892.56;6002270;22;20061;-91
2022/08/01 07:34:02;;;;;;;1.08;0.98;;;;;;;-145.06;100.00;60892.56;5983088;23;20001;-90
2022/08/01 07:36:42;;;;;;;0.80;0.80;;;;;;;-145.06;100.00;60892.56;5983548;23;20009;-90
2022/08/01 07:40:32;;;;;;;;;;;;;;;;;;;;;
2022/08/01 07:43:42;;;;;;;1.90;0.80;;;;;;;-145.06;100.00;60892.56;5940590;23;20004;-93
2022/08/01 07:46:52;;;;;;;0.80;0.68;;;;;;;-145.06;100.00;60892.56;5984547;23;20000;-92
2022/08/01 07:49:40;;;;;;;0.55;0.52;;;;;;;-145.06;100.00;60892.56;5983861;23;20001;-91
2022/08/01 07:52:27;;;;;;;1.50;0.75;;;;;;;-145.06;100.00;60892.56;5983509;23;20008;-91
2022/08/01 07:55:23;;;;;;;1.08;0.95;;;;;;;-145.06;100.00;60892.56;5983943;23;20004;-94
2022/08/01 07:59:25;;;;;;;;;;;;;;;;;;;;;
2022/08/01 08:02:19;;;;;;;;;;;;;;;;;;;;;
2022/08/01 08:12:22;;;;;;;0.57;0.57;;;;;;;-145.06;100.00;60892.56;5969886;23;20008;-93
2022/08/01 08:16:11;;;;;;;0.80;0.73;;;;;;;-145.06;100.00;60892.56;5979405;23;20008;-92
2022/08/01 08:18:59;;;;;;;1.75;0.90;;;;;;;-145.06;100.00;60892.56;5982955;23;20005;-90
2022/08/01 08:27:46;;;;;;;1.10;0.80;;;;;;;-145.06;100.00;60892.56;5976873;23;20147;-91
2022/08/01 08:30:42;;;;;;;1.48;0.75;;;;;;;-145.06;100.00;60892.56;5953441;23;20424;-91
2022/08/01 08:33:32;;;;;;;;;;;;;;;;;;;;;
2022/08/01 08:36:21;;;;;;;0.90;0.77;;;;;;;22.77;100.00;60892.56;6014058;23;20000;-91
2022/08/01 08:42:57;;;;;;;0.70;0.70;;;;;;;-145.06;100.00;60892.56;5894131;23;20004;-90
2022/08/01 08:45:54;;;;;;;0.57;0.52;;;;;;;-145.06;100.00;60892.56;5981001;23;20001;-90
2022/08/01 08:56:15;;;;;;;1.23;1.10;;;;;;;-145.06;100.00;60892.56;5940407;23;20005;-92
2022/08/01 08:59:28;;;;;;;1.20;1.10;;;;;;;22.93;100.00;60892.56;5982348;23;20012;-91
2022/08/01 09:03:12;;;;;;;;;;;;;;;;;;;;;
2022/08/01 09:06:02;;;;;;;;;;;;;;;;;;;;;
2022/08/01 09:08:53;;;;;;;;;;;;;;;;;;;;;
2022/08/01 09:11:42;;;;;;;1.88;1.40;;;;;;;-145.06;100.00;60892.56;6014380;23;20431;-90
2022/08/01 09:17:16;;;;;;;1.48;1.38;;;;;;;-145.06;100.00;60892.56;5998599;23;20036;-92
2022/08/01 09:19:55;;;;;;;1.88;1.70;;;;;;;-145.06;100.00;60892.56;5975868;23;20541;-91
2022/08/01 09:23:27;;;;;;;1.67;1.48;;;;;;;-145.06;100.00;60892.56;5981990;23;20009;-91
2022/08/01 09:26:56;;;;;;;;;;;;;;;;;;;;;
2022/08/01 09:33:55;;;;;;;1.73;1.63;;;;;;;-145.06;100.00;60892.56;5924682;23;20022;-91
2022/08/01 09:37:11;;;;;;;1.77;1.40;;;;;;;-145.06;100.00;60892.56;5939675;23;20001;-92
2022/08/01 09:39:57;;;;;;;1.35;1.20;;;;;;;-145.06;100.00;60892.56;5983093;23;20028;-93
2022/08/01 09:42:37;;;;;;;1.92;1.50;;;;;;;-145.06;100.00;60892.56;5980909;23;20009;-92
2022/08/01 09:45:57;;;;;;;1.42;1.20;;;;;;;-145.06;100.00;60892.56;5981399;23;20036;-90
2022/08/01 09:48:42;;;;;;;1.25;1.10;;;;;;;-145.06;100.00;60892.56;5979142;23;20009;-90
2022/08/01 09:55:03;;;;;;;1.92;1.50;;;;;;;-145.06;100.00;60892.56;6007641;23;20571;-91
2022/08/01 10:02:23;;;;;;;;;;;;;;;;;;;;;
2022/08/01 10:05:21;;;;;;;1.50;1.30;;;;;;;-145.06;100.00;60892.56;6017353;23;20000;-91
2022/08/01 10:08:06;;;;;;;1.08;0.98;;;;;;;-145.06;100.00;60892.56;5984952;23;20004;-91
2022/08/01 10:18:34;;;;;;;0.75;0.73;;;;;;;-145.06;100.00;60892.56;5982807;23;20036;-91
2022/08/01 10:21:59;;;;;;;;;;;;;;;;;;;;;
2022/08/01 10:29:13;;;;;;;1.08;0.80;;;;;;;-145.06;100.00;60892.56;5866129;23;20011;-90
2022/08/01 10:48:36;;;;;;;1.45;0.90;;;;;;;-145.06;100.00;60892.56;5984206;23;20095;-91
2022/08/01 15:48:33;;;;;;;0.30;0.20;;;;;;;-145.06;100.00;60892.56;5993603;23;20399;-88
2022/08/01 15:51:12;;;;;;;0.30;0.30;;;;;;;-145.06;100.00;60892.56;5979905;23;20012;-89
2022/08/01 15:53:51;;;;;;;0.35;0.35;;;;;;;-145.06;100.00;60892.56;5977484;23;20005;-90
2022/08/01 15:56:30;;;;;;;0.30;0.22;;;;;;;-145.06;100.00;60892.56;5949812;23;20317;-90
2022/08/01 15:59:09;;;;;;;0.25;0.25;;;;;;;-145.06;100.00;60892.56;5948584;23;20443;-92
2022/08/01 16:01:49;;;;;;;0.30;0.30;;;;;;;-145.06;100.00;60892.56;5968686;23;20005;-89
2022/08/01 16:04:28;;;;;;;0.40;0.30;;;;;;;-145.06;100.00;60892.56;5948007;23;20004;-92
2022/08/01 16:07:07;;;;;;;;;;;;;;;-145.06;100.00;60892.56;5948461;23;20009;-89
2022/08/01 16:09:46;;;;;;;0.20;0.20;;;;;;;-145.06;100.00;60892.56;5969287;23;19983;-89
2022/08/01 16:12:25;;;;;;;0.50;0.25;;;;;;;-145.06;100.00;60892.56;5968942;23;20009;-89
2022/08/01 16:15:05;;;;;;;0.90;0.50;;;;;;;-145.06;100.00;60892.56;5948330;23;20005;-89
2022/08/01 16:17:44;;;;;;;0.20;0.20;;;;;;;27.31;100.00;60892.56;5950977;23;20005;-91
2022/08/01 16:20:23;;;;;;;0.28;0.28;;;;;;;-145.06;100.00;60892.56;5986214;23;20009;-90
2022/08/01 16:23:02;;;;;;;0.60;0.20;;;;;;;-145.06;100.00;60892.56;5958705;23;20005;-90
2022/08/01 16:25:43;;;;;;;0.22;0.20;;;;;;;-145.06;100.00;60892.56;5980451;23;20009;-90
2022/08/01 16:28:22;;;;;;;0.20;0.20;;;;;;;62.66;100.00;60892.56;5958383;23;20005;-92
2022/08/01 16:31:05;;;;;;;0.30;0.20;;;;;;;-145.06;100.00;60892.56;5978235;23;20032;-90
2022/08/01 16:33:46;;;;;;;0.20;0.20;;;;;;;-145.06;100.00;60892.56;5954318;23;20005;-90
2022/08/01 17:22:51;;;;;;;;;;;;;;;;;;;;;
2022/08/01 17:25:56;;;;;;;0.20;0.20;;;;;;;-145.06;100.00;60892.56;5986040;23;20005;-90
2022/08/01 17:28:47;;;;;;;0.20;0.10;;;;;;;-145.06;100.00;60892.56;5956697;23;20009;-89
2022/08/01 19:19:18;;;;;;;0.20;0.20;;;;;;;-145.06;100.00;60892.56;6016534;23;20439;-90
2022/08/01 19:38:51;;;;;;;0.20;0.20;;;;;;;-145.06;100.00;60892.56;5953515;23;20016;-90
2022/08/01 19:41:37;;;;;;;0.30;0.20;;;;;;;-145.06;100.00;60892.56;5978250;23;20033;-90
2022/08/01 19:47:31;;;;;;;0.35;0.22;;;;;;;-145.06;100.00;60892.56;6018984;23;20376;-89
2022/08/01 19:50:31;;;;;;;0.50;0.40;;;;;;;-145.06;100.00;60892.56;5986825;23;20008;-91
2022/08/01 19:53:13;;;;;;;0.30;0.30;;;;;;;-145.06;100.00;60892.56;5984024;23;20005;-90
2022/08/01 19:55:59;;;;;;;0.22;0.22;;;;;;;-145.06;100.00;60892.56;5985267;23;20004;-93
2022/08/01 19:58:44;;;;;;;0.40;0.20;;;;;;;-145.06;100.00;60892.56;5985400;23;20346;-93
2022/08/01 20:01:31;;;;;;;0.40;0.22;;;;;;;-145.06;100.00;60892.56;5986299;23;20363;-92
2022/08/01 20:05:04;;;;;;;;;;;;;;;;;;;;;
2022/08/01 20:11:30;;;;;;;0.43;0.30;;;;;;;-145.06;100.00;60892.56;6018013;23;20024;-92
2022/08/01 20:18:10;;;;;;;0.43;0.20;;;;;;;-145.06;100.00;60892.56;5990329;23;20036;-90
2022/08/01 20:20:56;;;;;;;0.60;0.30;;;;;;;-145.06;100.00;60892.56;5984690;23;20001;-93
2022/08/01 20:23:56;;;;;;;0.32;0.20;;;;;;;-145.06;100.00;60892.56;5984875;23;20008;-89
2022/08/01 20:27:17;;;;;;;0.40;0.30;;;;;;;-145.06;100.00;60892.56;5985024;23;20004;-90
2022/08/01 20:34:37;;;;;;;0.17;0.17;;;;;;;-145.06;100.00;60892.56;6005936;23;20009;-90
2022/08/01 20:41:21;;;;;;;0.25;0.20;;;;;;;-145.06;100.00;60892.56;5928162;23;20010;-92
2022/08/01 20:44:09;;;;;;;0.15;0.10;;;;;;;-145.06;100.00;60892.56;5930339;23;20008;-91
2022/08/01 20:47:09;;;;;;;0.50;0.30;;;;;;;-145.06;100.00;60892.56;5984993;23;20008;-89
2022/08/01 20:53:24;;;;;;;0.25;0.17;;;;;;;-145.06;100.00;60892.56;6018383;23;20467;-90
2022/08/01 20:56:48;;;;;;;0.85;0.40;;;;;;;-145.06;100.00;60892.56;5985432;23;20004;-91
2022/08/01 20:59:55;;;;;;;0.30;0.30;;;;;;;-145.06;100.00;60892.56;5889477;23;20010;-90
2022/08/01 21:03:00;;;;;;;0.20;0.20;;;;;;;-145.06;100.00;60892.56;5984423;23;20009;-90
2022/08/01 21:05:49;;;;;;;0.75;0.20;;;;;;;-145.06;100.00;60892.56;5983399;23;20024;-89
2022/08/01 21:08:46;;;;;;;0.63;0.40;;;;;;;-145.06;100.00;60892.56;5984575;23;20005;-89
2022/08/01 21:11:37;;;;;;;0.30;0.28;;;;;;;-145.06;100.00;60892.56;5985228;23;20001;-91
2022/08/01 21:14:44;;;;;;;1.65;0.30;;;;;;;-145.06;100.00;60892.56;5985555;23;20036;-90
2022/08/01 21:18:04;;;;;;;0.52;0.30;;;;;;;-145.06;100.00;60892.56;5985483;23;20308;-91
2022/08/01 21:21:01;;;;;;;0.43;0.22;;;;;;;-145.06;100.00;60892.56;5939187;23;20005;-91
2022/08/01 21:24:20;;;;;;;0.50;0.20;;;;;;;-145.06;100.00;60892.56;5984569;23;20024;-89
2022/08/01 21:27:06;;;;;;;0.70;0.38;;;;;;;-145.06;100.00;60892.56;5979288;23;20001;-90
2022/08/01 21:29:47;;;;;;;0.55;0.30;;;;;;;-145.06;100.00;60892.56;5986225;23;20451;-90
2022/08/01 21:32:32;;;;;;;1.17;0.20;;;;;;;-145.06;100.00;60892.56;5987699;23;20142;-90
2022/08/01 21:35:20;;;;;;;0.30;0.25;;;;;;;-145.06;100.00;60892.56;5986255;23;20008;-89
2022/08/01 21:38:08;;;;;;;0.50;0.30;;;;;;;-145.06;100.00;60892.56;5986674;23;20079;-90
2022/08/01 21:40:53;;;;;;;0.28;0.28;;;;;;;-145.06;100.00;60892.56;5986702;23;20000;-90
2022/08/01 21:43:35;;;;;;;0.30;0.30;;;;;;;-145.06;100.00;60892.56;5986790;23;20004;-90
2022/08/01 21:46:30;;;;;;;0.30;0.20;;;;;;;-145.06;100.00;60892.56;5985501;23;20009;-91
2022/08/01 21:49:17;;;;;;;0.93;0.22;;;;;;;-145.06;100.00;60892.56;5987009;23;20439;-90
2022/08/01 21:52:07;;;;;;;0.20;0.20;;;;;;;-145.06;100.00;60892.56;5986013;23;20032;-89
2022/08/01 21:54:49;;;;;;;;;;;;;;;-145.06;100.00;60892.56;5987042;23;20008;-90
2022/08/01 21:57:59;;;;;;;0.45;0.30;;;;;;;-145.06;100.00;60892.56;5986573;23;19904;-91
2022/08/01 22:00:54;;;;;;;0.30;0.30;;;;;;;-145.06;100.00;60892.56;5987322;23;20395;-92
2022/08/01 22:03:51;;;;;;;1.55;0.32;;;;;;;-145.06;100.00;60892.56;5987279;23;20009;-90
2022/08/01 22:06:34;;;;;;;0.65;0.47;;;;;;;-145.06;100.00;60892.56;5987485;23;20071;-89
2022/08/01 22:09:24;;;;;;;0.60;0.30;;;;;;;-145.06;100.00;60892.56;5987387;23;20005;-91
2022/08/01 22:12:08;;;;;;;0.80;0.30;;;;;;;-145.06;100.00;60892.56;5987293;23;20466;-89
2022/08/01 22:14:57;;;;;;;0.85;0.40;;;;;;;-145.06;100.00;60892.56;5987567;23;20001;-90
2022/08/01 22:17:51;;;;;;;0.35;0.30;;;;;;;-145.06;100.00;60892.56;5987456;23;20004;-90
2022/08/01 22:20:56;;;;;;;0.50;0.40;;;;;;;-145.06;100.00;60892.56;5986679;23;20442;-90
2022/08/01 22:24:21;;;;;;;;;;;;;;;;;;;;;
2022/08/01 22:31:31;;;;;;;0.85;0.52;;;;;;;-145.06;100.00;60892.56;6013893;23;20000;-90
2022/08/01 22:34:33;;;;;;;0.40;0.30;;;;;;;-145.06;100.00;60892.56;6003744;23;20027;-89
2022/08/01 22:41:53;;;;;;;0.40;0.30;;;;;;;-145.06;100.00;60892.56;5952795;23;20310;-90
2022/08/01 22:45:05;;;;;;;0.32;0.32;;;;;;;-145.06;100.00;60892.56;5954528;23;20060;-90
2022/08/01 22:48:13;;;;;;;0.82;0.30;;;;;;;-145.06;100.00;60892.56;5981413;23;20008;-91
2022/08/01 22:51:44;;;;;;;0.30;0.30;;;;;;;-145.06;100.00;60892.56;5982057;23;20009;-91
2022/08/01 22:55:09;;;;;;;0.30;0.30;;;;;;;-145.06;100.00;60892.56;5956633;23;20000;-93
2022/08/01 22:58:34;;;;;;;0.30;0.30;;;;;;;-145.06;100.00;60892.56;5982552;23;20079;-91
2022/08/01 23:02:05;;;;;;;0.52;0.30;;;;;;;-145.06;100.00;60892.56;5981964;23;20490;-91
2022/08/01 23:05:09;;;;;;;0.93;0.35;;;;;;;-145.06;100.00;60892.56;5964896;23;20004;-90
2022/08/01 23:08:25;;;;;;;0.52;0.30;;;;;;;-145.06;100.00;60892.56;5974287;23;20017;-90
2022/08/01 23:11:43;;;;;;;0.38;0.30;;;;;;;-145.06;100.00;60892.56;5982375;23;20008;-90
2022/08/01 23:14:44;;;;;;;0.77;0.30;;;;;;;-145.06;100.00;60892.56;5979843;23;20004;-89
2022/08/01 23:18:23;;;;;;;1.13;0.45;;;;;;;-145.06;100.00;60892.56;5982152;23;20004;-89
2022/08/01 23:21:13;;;;;;;0.40;0.30;;;;;;;-145.06;100.00;60892.56;5981887;23;19997;-90
2022/08/01 23:24:15;;;;;;;0.40;0.32;;;;;;;-145.06;100.00;60892.56;5981662;23;20008;-89
2022/08/01 23:30:15;;;;;;;0.35;0.28;;;;;;;-145.06;100.00;60892.56;6013906;23;20005;-90
2022/08/01 23:33:30;;;;;;;1.27;0.40;;;;;;;-145.06;100.00;60892.56;5836550;23;20003;-91
2022/08/01 23:36:36;;;;;;;0.38;0.30;;;;;;;-145.06;100.00;60892.56;5944781;23;20002;-90
2022/08/01 23:39:34;;;;;;;0.32;0.32;;;;;;;-145.06;100.00;60892.56;5981978;23;20004;-90
2022/08/01 23:42:39;;;;;;;0.50;0.30;;;;;;;-145.06;100.00;60892.56;5981541;23;20005;-89
2022/08/01 23:45:38;;;;;;;;;;;;;;;;;;;;;
2022/08/01 23:49:12;;;;;;;0.50;0.40;;;;;;;-145.06;100.00;60892.56;6013801;23;20024;-93
2022/08/01 23:52:26;;;;;;;;;;;;;;;;;;;;;
2022/08/01 23:55:39;;;;;;;0.50;0.30;;;;;;;-145.06;100.00;60892.56;6013596;23;20009;-88
2022/08/01 23:58:45;;;;;;;0.55;0.30;;;;;;;18.47;100.00;60892.56;5981928;23;20415;-90
